Time;durP1;ratioP1;P1;durP2;ratioP2;P2;SDS_P1;SDS_P2;PMS_P1;PMS_P2;Temp;Humidity;BMP_temperature;BMP_pressure;BME280_temperature;BME280_humidity;BME280_pressure;Samples;Min_cycle;Max_cycle;Signal;HPM_P1;HPM_P2
2022/08/29 00:00:31;;;;;;;7.93;3.83;;;12.70;99.90;;;;;;5066726;28;20488;-50
2022/08/29 00:03:00;;;;;;;10.37;4.60;;;12.70;99.90;;;;;;5075363;28;20455;-51
2022/08/29 00:05:29;;;;;;;4.30;3.80;;;12.70;99.90;;;;;;5071902;28;20468;-50
2022/08/29 00:07:57;;;;;;;8.50;4.00;;;12.70;99.90;;;;;;5075983;28;20991;-50
2022/08/29 00:10:24;;;;;;;4.33;3.00;;;12.70;99.90;;;;;;5069911;28;21024;-50
2022/08/29 00:12:51;;;;;;;4.73;3.57;;;12.70;99.90;;;;;;5080235;28;20452;-51
2022/08/29 00:15:19;;;;;;;11.33;3.93;;;12.60;99.90;;;;;;5072306;28;20469;-51
2022/08/29 00:17:46;;;;;;;5.77;3.83;;;12.60;99.90;;;;;;5069620;28;21011;-50
2022/08/29 00:20:17;;;;;;;6.13;3.60;;;12.60;99.90;;;;;;5069522;28;20476;-50
2022/08/29 00:22:44;;;;;;;6.90;3.73;;;12.60;99.90;;;;;;5078374;28;20456;-51
2022/08/29 00:25:13;;;;;;;7.07;3.87;;;12.60;99.90;;;;;;5066654;28;20514;-50
2022/08/29 00:27:39;;;;;;;12.00;3.93;;;12.60;99.90;;;;;;5062863;28;22207;-50
2022/08/29 00:30:08;;;;;;;6.60;3.60;;;12.50;99.90;;;;;;5066667;28;21176;-50
2022/08/29 00:32:35;;;;;;;5.67;3.90;;;12.50;99.90;;;;;;5062616;28;20466;-49
2022/08/29 00:35:03;;;;;;;5.47;3.27;;;12.50;99.90;;;;;;5069196;28;20464;-50
2022/08/29 00:37:31;;;;;;;5.73;4.10;;;12.50;99.90;;;;;;5066250;28;20461;-51
2022/08/29 00:39:58;;;;;;;8.07;3.37;;;12.50;99.90;;;;;;5066056;28;20477;-50
2022/08/29 00:42:26;;;;;;;6.23;3.87;;;12.40;99.90;;;;;;5078040;28;20517;-51
2022/08/29 00:44:52;;;;;;;5.33;3.37;;;12.40;99.90;;;;;;5066193;28;20515;-52
2022/08/29 00:47:22;;;;;;;5.63;4.07;;;12.40;99.90;;;;;;5075338;28;20517;-51
2022/08/29 00:49:52;;;;;;;9.70;3.60;;;12.40;99.90;;;;;;5069937;28;21303;-51
2022/08/29 00:52:27;;;;;;;7.37;4.13;;;12.40;99.90;;;;;;5076189;28;21007;-52
2022/08/29 00:54:56;;;;;;;9.23;3.77;;;12.40;99.90;;;;;;5066182;28;20456;-52
2022/08/29 00:57:25;;;;;;;6.37;3.97;;;12.40;99.90;;;;;;5062787;28;20457;-51
2022/08/29 00:59:52;;;;;;;12.53;5.40;;;12.30;99.90;;;;;;5064888;28;20473;-52
2022/08/29 01:02:20;;;;;;;12.10;3.70;;;12.40;99.90;;;;;;5066331;28;20516;-52
2022/08/29 01:04:46;;;;;;;7.63;4.13;;;12.30;99.90;;;;;;5077596;28;20515;-51
2022/08/29 01:07:13;;;;;;;10.50;3.53;;;12.30;99.90;;;;;;5061361;28;20453;-52
2022/08/29 01:09:43;;;;;;;9.00;4.43;;;12.30;99.90;;;;;;5066572;28;20485;-50
2022/08/29 01:12:16;;;;;;;6.33;4.10;;;12.30;99.90;;;;;;5081495;28;20505;-52
2022/08/29 01:14:46;;;;;;;6.10;3.70;;;12.30;99.90;;;;;;5064552;28;20480;-53
2022/08/29 01:17:17;;;;;;;8.77;3.87;;;12.30;99.90;;;;;;5074639;28;20459;-51
2022/08/29 01:19:49;;;;;;;7.67;3.87;;;12.30;99.90;;;;;;5072006;28;20487;-51
2022/08/29 01:22:33;;;;;;;5.87;3.50;;;12.30;99.90;;;;;;5074190;28;20872;-51
2022/08/29 01:25:06;;;;;;;6.10;3.67;;;12.20;99.90;;;;;;5063753;28;20861;-51
2022/08/29 01:27:37;;;;;;;9.10;4.70;;;12.20;99.90;;;;;;5073261;28;20445;-52
2022/08/29 01:30:05;;;;;;;9.50;3.70;;;12.20;99.90;;;;;;5064564;28;20476;-51
2022/08/29 01:32:32;;;;;;;7.93;3.43;;;12.20;99.90;;;;;;5069985;28;20456;-51
2022/08/29 01:34:58;;;;;;;8.23;4.10;;;12.20;99.90;;;;;;5069300;28;20517;-51
2022/08/29 01:37:28;;;;;;;7.97;3.90;;;12.30;99.90;;;;;;5070340;28;20472;-52
2022/08/29 01:39:54;;;;;;;5.77;3.77;;;12.30;99.90;;;;;;5065224;28;20484;-51
2022/08/29 01:42:23;;;;;;;13.63;3.70;;;12.20;99.90;;;;;;5079698;28;20489;-51
2022/08/29 01:44:52;;;;;;;9.63;4.10;;;12.20;99.90;;;;;;5071924;28;20518;-53
2022/08/29 01:47:19;;;;;;;9.30;5.13;;;12.20;99.90;;;;;;5069954;28;20504;-51
2022/08/29 01:49:46;;;;;;;8.50;3.70;;;12.20;99.90;;;;;;5082575;28;20469;-53
2022/08/29 01:52:13;;;;;;;6.13;3.63;;;12.20;99.90;;;;;;5080109;28;20459;-51
2022/08/29 01:54:41;;;;;;;8.60;4.20;;;12.20;99.90;;;;;;5071975;28;20457;-52
2022/08/29 01:57:08;;;;;;;3.70;2.83;;;12.20;99.90;;;;;;5070146;28;20469;-52
2022/08/29 01:59:37;;;;;;;7.20;3.60;;;12.20;99.90;;;;;;5072278;28;20546;-51
2022/08/29 02:02:09;;;;;;;13.63;4.47;;;12.20;99.90;;;;;;5070499;28;20514;-51
2022/08/29 02:04:36;;;;;;;7.37;4.10;;;12.10;99.90;;;;;;5072282;28;20996;-51
2022/08/29 02:07:04;;;;;;;9.40;4.30;;;12.10;99.90;;;;;;5066409;28;20476;-51
2022/08/29 02:09:30;;;;;;;9.30;3.60;;;12.10;99.90;;;;;;5070558;28;20477;-51
2022/08/29 02:12:01;;;;;;;4.70;3.77;;;12.10;99.90;;;;;;5075089;28;20465;-51
2022/08/29 02:14:28;;;;;;;6.47;3.50;;;12.10;99.90;;;;;;5068746;28;20517;-51
2022/08/29 02:16:56;;;;;;;9.57;4.00;;;12.00;99.90;;;;;;5067002;28;20461;-51
2022/08/29 02:19:23;;;;;;;4.70;3.30;;;12.00;99.90;;;;;;5069483;28;20557;-52
2022/08/29 02:21:49;;;;;;;8.73;3.67;;;11.90;99.90;;;;;;5069653;28;21019;-51
2022/08/29 02:24:16;;;;;;;5.40;3.90;;;11.90;99.90;;;;;;5071194;28;20538;-51
2022/08/29 02:26:43;;;;;;;9.60;4.23;;;11.90;99.90;;;;;;5070140;28;20522;-52
2022/08/29 02:29:11;;;;;;;9.53;5.10;;;11.90;99.90;;;;;;5071143;28;20556;-51
2022/08/29 02:31:38;;;;;;;8.63;4.17;;;11.90;99.90;;;;;;5066954;28;20476;-51
2022/08/29 02:34:07;;;;;;;8.33;5.30;;;11.90;99.90;;;;;;5067866;28;20465;-52
2022/08/29 02:36:34;;;;;;;5.70;4.10;;;11.90;99.90;;;;;;5071419;28;20491;-52
2022/08/29 02:39:00;;;;;;;4.93;3.40;;;11.90;99.90;;;;;;5069523;28;20543;-51
2022/08/29 02:41:27;;;;;;;10.60;3.73;;;11.90;99.90;;;;;;5073887;28;20453;-51
2022/08/29 02:43:54;;;;;;;16.00;3.90;;;11.90;99.90;;;;;;5079031;28;20461;-51
2022/08/29 02:46:20;;;;;;;8.70;4.10;;;11.90;99.90;;;;;;5069271;28;20457;-51
2022/08/29 02:48:48;;;;;;;11.50;4.20;;;11.90;99.90;;;;;;5067639;28;20872;-51
2022/08/29 02:51:20;;;;;;;9.93;4.23;;;11.90;99.90;;;;;;5079825;28;21317;-51
2022/08/29 02:53:47;;;;;;;6.60;3.97;;;11.90;99.90;;;;;;5070371;28;20933;-51
2022/08/29 02:56:14;;;;;;;11.47;5.20;;;11.90;99.90;;;;;;5073619;28;20457;-49
2022/08/29 02:58:41;;;;;;;7.30;4.33;;;11.80;99.90;;;;;;5077976;28;20495;-50
2022/08/29 03:01:08;;;;;;;6.17;4.30;;;11.80;99.90;;;;;;5067730;28;20824;-50
2022/08/29 03:03:35;;;;;;;8.00;5.30;;;11.80;99.90;;;;;;5066633;28;21063;-50
2022/08/29 03:06:01;;;;;;;10.33;4.60;;;11.80;99.90;;;;;;5069648;28;20506;-50
2022/08/29 03:08:29;;;;;;;13.77;5.30;;;11.80;99.90;;;;;;5078945;28;20461;-50
2022/08/29 03:10:56;;;;;;;9.10;5.10;;;11.80;99.90;;;;;;5074133;28;21036;-50
2022/08/29 03:13:22;;;;;;;12.50;5.47;;;11.70;99.90;;;;;;5074188;28;20548;-50
2022/08/29 03:15:49;;;;;;;10.13;5.07;;;11.70;99.90;;;;;;5070667;28;20547;-50
2022/08/29 03:18:17;;;;;;;12.60;5.93;;;11.70;99.90;;;;;;5069916;28;20488;-50
2022/08/29 03:20:44;;;;;;;9.90;6.30;;;11.70;99.90;;;;;;5069418;28;20923;-50
2022/08/29 03:23:11;;;;;;;13.70;5.63;;;11.70;99.90;;;;;;5069320;28;20461;-50
2022/08/29 03:25:39;;;;;;;11.80;5.30;;;11.80;99.90;;;;;;5071578;28;20465;-50
2022/08/29 03:28:06;;;;;;;15.60;5.30;;;11.80;99.90;;;;;;5063584;28;20461;-50
2022/08/29 03:30:33;;;;;;;9.93;5.20;;;11.80;99.90;;;;;;5070416;28;20481;-49
2022/08/29 03:33:00;;;;;;;10.57;5.80;;;11.70;99.90;;;;;;5077242;28;20461;-50
2022/08/29 03:35:26;;;;;;;9.40;5.03;;;11.70;99.90;;;;;;5068146;28;20532;-52
2022/08/29 03:37:55;;;;;;;11.70;4.60;;;11.70;99.90;;;;;;5063819;28;20456;-51
2022/08/29 03:40:22;;;;;;;9.83;5.80;;;11.70;99.90;;;;;;5072519;28;20480;-50
2022/08/29 03:42:51;;;;;;;9.70;4.93;;;11.80;99.90;;;;;;5069632;28;20469;-50
2022/08/29 03:45:18;;;;;;;15.33;4.90;;;11.70;99.90;;;;;;5064947;28;20480;-51
2022/08/29 03:47:45;;;;;;;7.33;4.60;;;11.70;99.90;;;;;;5073970;28;20886;-50
2022/08/29 03:50:13;;;;;;;9.60;4.60;;;11.70;99.90;;;;;;5067905;28;20477;-50
2022/08/29 03:52:41;;;;;;;11.13;4.87;;;11.70;99.90;;;;;;5070307;28;20441;-52
2022/08/29 03:55:09;;;;;;;6.57;4.30;;;11.70;99.90;;;;;;5067911;28;20540;-52
2022/08/29 03:57:36;;;;;;;11.40;5.03;;;11.80;99.90;;;;;;5071368;28;20510;-52
2022/08/29 04:00:10;;;;;;;6.63;4.90;;;11.80;99.90;;;;;;5065966;28;20480;-52
2022/08/29 04:02:37;;;;;;;6.37;3.50;;;11.70;99.90;;;;;;5064703;28;20465;-52
2022/08/29 04:05:07;;;;;;;8.23;3.63;;;11.70;99.90;;;;;;5065970;28;21541;-51
2022/08/29 04:07:41;;;;;;;11.17;4.57;;;11.70;99.90;;;;;;5079051;28;20458;-50
2022/08/29 04:10:10;;;;;;;8.83;4.50;;;11.70;99.90;;;;;;5065222;28;20482;-51
2022/08/29 04:12:37;;;;;;;10.00;4.50;;;11.70;99.90;;;;;;5070175;28;20457;-50
2022/08/29 04:15:07;;;;;;;13.40;4.40;;;11.70;99.90;;;;;;5067118;28;20460;-51
2022/08/29 04:17:34;;;;;;;8.93;4.77;;;11.80;99.90;;;;;;5070770;28;20506;-50
2022/08/29 04:20:01;;;;;;;11.43;4.50;;;11.80;99.90;;;;;;5066389;28;20556;-50
2022/08/29 04:22:27;;;;;;;7.23;4.63;;;11.80;99.90;;;;;;5084339;28;20481;-50
2022/08/29 04:24:54;;;;;;;10.90;5.20;;;11.70;99.90;;;;;;5069963;28;20845;-50
2022/08/29 04:27:21;;;;;;;7.13;3.97;;;11.80;99.90;;;;;;5079119;28;20457;-50
2022/08/29 04:29:47;;;;;;;11.60;4.23;;;11.80;99.90;;;;;;5071745;28;20468;-50
2022/08/29 04:32:16;;;;;;;9.33;5.00;;;11.80;99.90;;;;;;5071490;28;20515;-49
2022/08/29 04:34:43;;;;;;;10.47;4.30;;;11.90;99.90;;;;;;5068939;28;20457;-51
2022/08/29 04:37:09;;;;;;;13.03;5.13;;;11.90;99.90;;;;;;5072031;28;20517;-50
2022/08/29 04:39:36;;;;;;;7.20;4.43;;;11.90;99.90;;;;;;5075021;22;20494;-51
2022/08/29 04:42:03;;;;;;;9.87;4.63;;;11.90;99.90;;;;;;5019543;28;20454;-51
2022/08/29 04:44:30;;;;;;;8.10;4.70;;;11.90;99.90;;;;;;5021530;28;20537;-52
2022/08/29 04:46:56;;;;;;;7.77;4.37;;;11.90;99.90;;;;;;5020349;28;20561;-52
2022/08/29 04:49:25;;;;;;;11.13;5.13;;;12.00;99.90;;;;;;5026925;28;20518;-52
2022/08/29 04:51:52;;;;;;;12.10;4.50;;;12.00;99.90;;;;;;5020729;28;20546;-53
2022/08/29 04:54:19;;;;;;;11.23;4.70;;;12.00;99.90;;;;;;5016406;28;20842;-53
2022/08/29 04:56:45;;;;;;;7.50;4.60;;;12.00;99.90;;;;;;5021252;28;20568;-54
2022/08/29 04:59:12;;;;;;;17.77;5.87;;;12.10;99.90;;;;;;5025047;28;20488;-53
2022/08/29 05:01:39;;;;;;;10.17;5.17;;;12.10;99.90;;;;;;5020098;28;20451;-51
2022/08/29 05:04:05;;;;;;;9.00;4.80;;;12.10;99.90;;;;;;5019311;28;20498;-52
2022/08/29 05:06:33;;;;;;;10.67;5.10;;;12.20;99.90;;;;;;5030266;28;20517;-53
2022/08/29 05:09:00;;;;;;;11.63;4.50;;;12.20;99.90;;;;;;5028466;28;20466;-51
2022/08/29 05:11:28;;;;;;;7.50;4.63;;;12.30;99.90;;;;;;5031382;28;20480;-52
2022/08/29 05:13:54;;;;;;;8.70;4.60;;;12.30;99.90;;;;;;5042837;28;21157;-53
2022/08/29 05:16:21;;;;;;;17.67;5.07;;;12.30;99.90;;;;;;5025300;28;20463;-51
2022/08/29 05:18:48;;;;;;;10.53;5.30;;;12.40;99.90;;;;;;5024292;28;20547;-52
2022/08/29 05:21:23;;;;;;;8.53;5.40;;;12.40;99.90;;;;;;5029503;28;20567;-52
2022/08/29 05:23:51;;;;;;;13.70;5.30;;;12.50;99.90;;;;;;5035015;28;20462;-51
2022/08/29 05:26:18;;;;;;;17.63;5.00;;;12.50;99.90;;;;;;5015258;28;20471;-52
2022/08/29 05:28:46;;;;;;;13.47;5.73;;;12.60;99.90;;;;;;5025520;28;20466;-52
2022/08/29 05:31:13;;;;;;;11.90;5.50;;;12.60;99.90;;;;;;5024110;28;20482;-51
2022/08/29 05:33:40;;;;;;;8.77;5.43;;;12.70;99.90;;;;;;5031509;28;20455;-51
2022/08/29 05:36:07;;;;;;;9.60;5.20;;;12.70;99.90;;;;;;5031159;28;20462;-52
2022/08/29 05:38:33;;;;;;;9.73;5.30;;;12.70;99.90;;;;;;5027969;28;20956;-51
2022/08/29 05:41:02;;;;;;;9.90;5.50;;;12.80;99.90;;;;;;5029881;28;20509;-52
2022/08/29 05:43:29;;;;;;;9.57;4.87;;;12.80;99.90;;;;;;5031670;28;20524;-53
2022/08/29 05:46:01;;;;;;;11.67;5.07;;;12.90;99.90;;;;;;5030385;28;20972;-53
2022/08/29 05:48:28;;;;;;;11.40;5.60;;;13.00;99.90;;;;;;5034070;28;20451;-51
2022/08/29 05:50:55;;;;;;;11.47;5.00;;;13.00;99.90;;;;;;5026235;28;20478;-52
2022/08/29 05:53:21;;;;;;;14.83;6.33;;;13.10;99.90;;;;;;5026535;28;20534;-52
2022/08/29 05:55:48;;;;;;;19.63;6.33;;;13.10;99.90;;;;;;5039379;28;20462;-53
2022/08/29 05:58:17;;;;;;;13.50;5.10;;;13.10;99.90;;;;;;5030110;28;20516;-50
2022/08/29 06:00:45;;;;;;;7.30;5.30;;;13.10;99.90;;;;;;5025609;28;21050;-52
2022/08/29 06:03:12;;;;;;;10.87;5.47;;;13.20;99.90;;;;;;5025975;28;20458;-51
2022/08/29 06:05:40;;;;;;;11.70;5.53;;;13.20;99.90;;;;;;5027049;28;20548;-52
2022/08/29 06:08:07;;;;;;;9.30;5.40;;;13.20;99.90;;;;;;5027171;28;20512;-51
2022/08/29 06:10:38;;;;;;;13.20;5.23;;;13.30;99.90;;;;;;5016803;28;20509;-51
2022/08/29 06:13:05;;;;;;;14.07;5.10;;;13.40;99.90;;;;;;5026799;28;20518;-52
2022/08/29 06:15:33;;;;;;;17.30;6.17;;;13.40;99.90;;;;;;5026467;28;20960;-52
2022/08/29 06:17:59;;;;;;;11.17;4.63;;;13.50;99.90;;;;;;5028373;28;20465;-51
2022/08/29 06:20:26;;;;;;;7.43;4.60;;;13.50;99.90;;;;;;5038269;28;20535;-51
2022/08/29 06:22:52;;;;;;;15.10;5.43;;;13.60;99.90;;;;;;5035573;28;20505;-51
2022/08/29 06:25:19;;;;;;;14.53;5.67;;;13.70;99.90;;;;;;5031136;28;20491;-53
2022/08/29 06:27:46;;;;;;;11.63;5.47;;;13.70;99.90;;;;;;5031232;28;20467;-52
2022/08/29 06:30:13;;;;;;;8.90;5.77;;;13.70;99.90;;;;;;5029328;28;20483;-52
2022/08/29 06:32:40;;;;;;;9.73;5.10;;;13.80;99.90;;;;;;5031729;28;20894;-51
2022/08/29 06:35:08;;;;;;;12.57;6.20;;;13.80;99.90;;;;;;5043133;28;20519;-52
2022/08/29 06:37:34;;;;;;;13.57;5.80;;;13.80;99.90;;;;;;5027578;28;20458;-53
2022/08/29 06:40:01;;;;;;;8.93;5.10;;;13.90;99.90;;;;;;5017976;28;20584;-52
2022/08/29 06:42:27;;;;;;;11.77;5.87;;;13.90;99.90;;;;;;5028716;28;20447;-53
2022/08/29 06:44:54;;;;;;;8.67;5.00;;;14.00;99.90;;;;;;5043155;28;20836;-51
2022/08/29 06:47:21;;;;;;;17.07;6.57;;;14.10;99.90;;;;;;5032559;28;20447;-51
2022/08/29 06:49:48;;;;;;;13.53;5.30;;;14.10;99.90;;;;;;5035400;28;20528;-52
2022/08/29 06:52:15;;;;;;;12.27;5.47;;;14.20;99.90;;;;;;5040854;28;20535;-51
2022/08/29 06:54:42;;;;;;;12.77;6.23;;;14.20;99.90;;;;;;5028795;28;20460;-52
2022/08/29 06:57:08;;;;;;;8.80;5.10;;;14.30;99.90;;;;;;5026771;28;20533;-52
2022/08/29 06:59:35;;;;;;;10.50;5.33;;;14.40;99.90;;;;;;5030377;28;20470;-52
2022/08/29 07:02:02;;;;;;;12.67;5.73;;;14.50;99.90;;;;;;5026554;28;20462;-51
2022/08/29 07:04:29;;;;;;;11.13;4.63;;;14.50;99.90;;;;;;5025872;28;20494;-52
2022/08/29 07:06:57;;;;;;;11.90;5.63;;;14.60;99.90;;;;;;5031919;28;20462;-52
2022/08/29 07:09:24;;;;;;;12.00;5.17;;;14.60;99.90;;;;;;5034363;28;20956;-51
2022/08/29 07:11:52;;;;;;;11.50;6.50;;;14.70;99.90;;;;;;5027066;28;20486;-52
2022/08/29 07:14:19;;;;;;;11.33;5.90;;;14.70;99.90;;;;;;5032180;28;20458;-51
2022/08/29 07:16:46;;;;;;;17.73;6.17;;;14.80;99.90;;;;;;5028696;28;20526;-52
2022/08/29 07:19:12;;;;;;;12.30;5.07;;;14.80;99.90;;;;;;5028121;28;20464;-51
2022/08/29 07:21:40;;;;;;;19.10;5.60;;;14.90;99.90;;;;;;5027794;28;20467;-51
2022/08/29 07:24:08;;;;;;;9.60;4.83;;;15.00;99.90;;;;;;5031485;28;20467;-52
2022/08/29 07:26:37;;;;;;;11.07;5.37;;;15.00;99.90;;;;;;5025484;28;20495;-53
2022/08/29 07:29:07;;;;;;;15.73;6.17;;;15.10;99.90;;;;;;5025205;28;20843;-53
2022/08/29 07:31:34;;;;;;;15.13;6.83;;;15.20;99.90;;;;;;5024305;28;20498;-53
2022/08/29 07:34:00;;;;;;;11.67;5.77;;;15.30;99.90;;;;;;5024555;28;20816;-53
2022/08/29 07:36:27;;;;;;;9.50;5.30;;;15.40;99.90;;;;;;5033866;28;20836;-51
2022/08/29 07:38:53;;;;;;;13.60;5.33;;;15.50;99.90;;;;;;5032543;28;20508;-52
2022/08/29 07:41:23;;;;;;;12.90;5.67;;;15.60;99.90;;;;;;5026401;28;20541;-52
2022/08/29 07:43:50;;;;;;;6.10;5.50;;;15.70;99.90;;;;;;5034000;28;20457;-52
2022/08/29 07:46:18;;;;;;;12.93;6.17;;;15.90;99.90;;;;;;5033087;28;20838;-51
2022/08/29 07:48:44;;;;;;;8.37;5.33;;;16.00;99.90;;;;;;5032479;28;20944;-50
2022/08/29 07:51:13;;;;;;;12.87;6.20;;;16.10;99.90;;;;;;5026604;28;20514;-54
2022/08/29 07:53:41;;;;;;;11.03;5.40;;;16.20;99.90;;;;;;5038252;28;20516;-51
2022/08/29 07:56:10;;;;;;;11.37;5.93;;;16.20;99.90;;;;;;5026441;28;20872;-52
2022/08/29 07:58:38;;;;;;;15.37;6.63;;;16.20;99.90;;;;;;5027713;28;20469;-51
2022/08/29 08:01:05;;;;;;;12.00;4.77;;;16.30;99.90;;;;;;5027850;28;20482;-53
2022/08/29 08:03:33;;;;;;;11.80;5.43;;;16.40;99.90;;;;;;5030727;28;20515;-53
2022/08/29 08:06:00;;;;;;;9.30;4.80;;;16.40;99.90;;;;;;5031931;28;20463;-52
2022/08/29 08:08:26;;;;;;;10.47;5.00;;;16.40;99.90;;;;;;5039490;28;20471;-52
2022/08/29 08:10:53;;;;;;;13.87;5.13;;;16.40;99.90;;;;;;5035366;28;20488;-51
2022/08/29 08:13:20;;;;;;;12.80;5.40;;;16.40;99.90;;;;;;5027788;28;20811;-51
2022/08/29 08:15:48;;;;;;;10.43;4.80;;;16.40;99.90;;;;;;5027602;28;20489;-52
2022/08/29 08:18:15;;;;;;;14.10;5.67;;;16.40;99.90;;;;;;5026245;28;20504;-51
2022/08/29 08:20:47;;;;;;;7.20;4.80;;;16.40;99.90;;;;;;5039566;28;20462;-52
2022/08/29 08:23:14;;;;;;;8.77;5.13;;;16.40;99.90;;;;;;5022750;28;20524;-51
2022/08/29 08:25:40;;;;;;;7.40;5.73;;;16.50;99.90;;;;;;5037102;28;20548;-52
2022/08/29 08:28:07;;;;;;;14.73;5.80;;;16.50;99.90;;;;;;5028216;28;21692;-52
2022/08/29 08:30:33;;;;;;;10.40;6.40;;;16.50;99.90;;;;;;5028179;28;20482;-53
2022/08/29 08:33:01;;;;;;;8.63;5.40;;;16.60;99.90;;;;;;5030942;28;20483;-51
2022/08/29 08:35:28;;;;;;;9.53;5.60;;;16.50;99.90;;;;;;5037134;28;20462;-51
2022/08/29 08:37:55;;;;;;;9.30;4.90;;;16.60;99.90;;;;;;5051816;28;20476;-52
2022/08/29 08:40:26;;;;;;;10.50;5.83;;;16.70;99.90;;;;;;5038381;28;20486;-53
2022/08/29 08:42:59;;;;;;;10.13;5.57;;;16.70;99.90;;;;;;5036598;28;20435;-51
2022/08/29 08:45:30;;;;;;;6.70;4.23;;;16.80;99.90;;;;;;5033554;28;20463;-52
2022/08/29 08:48:03;;;;;;;11.87;5.87;;;16.80;99.90;;;;;;5030160;28;20442;-51
2022/08/29 08:50:39;;;;;;;12.77;5.30;;;16.80;99.90;;;;;;5031227;28;20474;-52
2022/08/29 08:53:10;;;;;;;10.47;5.30;;;16.80;99.90;;;;;;5032802;28;20486;-52
2022/08/29 08:55:42;;;;;;;8.00;5.00;;;16.90;99.90;;;;;;5037432;28;20462;-53
2022/08/29 08:58:15;;;;;;;11.50;5.70;;;16.90;99.90;;;;;;5038254;28;20940;-52
2022/08/29 09:00:45;;;;;;;7.93;4.73;;;16.90;99.90;;;;;;5032380;28;20532;-53
2022/08/29 09:03:25;;;;;;;11.97;4.83;;;17.00;99.90;;;;;;5032597;28;20508;-52
2022/08/29 09:06:07;;;;;;;16.27;5.33;;;17.10;99.90;;;;;;5031472;28;20470;-52
2022/08/29 09:08:43;;;;;;;5.37;4.77;;;17.10;99.90;;;;;;5030289;28;21174;-52
2022/08/29 09:11:18;;;;;;;12.17;5.90;;;17.20;99.90;;;;;;5038959;28;20478;-52
2022/08/29 09:13:57;;;;;;;11.17;5.53;;;17.10;99.90;;;;;;5039431;28;20536;-51
2022/08/29 09:16:30;;;;;;;11.80;5.50;;;17.20;99.90;;;;;;5028603;28;20459;-54
2022/08/29 09:19:01;;;;;;;11.80;4.90;;;17.20;99.90;;;;;;5029869;28;20459;-52
2022/08/29 09:21:32;;;;;;;11.27;5.47;;;17.20;99.90;;;;;;5035671;28;20458;-53
2022/08/29 09:24:00;;;;;;;11.07;5.13;;;17.20;99.90;;;;;;5041279;28;20454;-53
2022/08/29 09:26:27;;;;;;;7.90;5.70;;;17.30;99.90;;;;;;5031390;28;20494;-53
2022/08/29 09:28:54;;;;;;;10.50;5.33;;;17.20;99.90;;;;;;5040905;28;20886;-53
2022/08/29 09:31:24;;;;;;;10.93;4.83;;;17.30;99.90;;;;;;5032599;28;20482;-54
2022/08/29 09:33:54;;;;;;;12.80;6.10;;;17.30;99.90;;;;;;5034893;28;20510;-53
2022/08/29 09:36:39;;;;;;;10.87;5.30;;;17.30;99.90;;;;;;5040899;28;20541;-53
2022/08/29 09:39:18;;;;;;;10.07;5.13;;;17.30;99.90;;;;;;5025821;28;20470;-53
2022/08/29 09:41:48;;;;;;;10.00;5.50;;;17.20;99.90;;;;;;5028286;28;21002;-54
2022/08/29 09:44:20;;;;;;;8.10;4.87;;;17.20;99.90;;;;;;5037350;28;20490;-53
2022/08/29 09:47:00;;;;;;;8.00;5.13;;;17.20;99.90;;;;;;5037374;28;20463;-52
2022/08/29 09:49:27;;;;;;;15.33;5.27;;;17.20;90.90;;;;;;5023079;28;20483;-54
2022/08/29 09:52:09;;;;;;;8.67;5.73;;;17.20;99.90;;;;;;5032314;28;20457;-53
2022/08/29 09:54:36;;;;;;;12.60;5.40;;;17.20;99.90;;;;;;5028634;28;20994;-53
2022/08/29 09:57:09;;;;;;;14.27;7.00;;;17.20;99.90;;;;;;5037124;28;20836;-53
2022/08/29 09:59:38;;;;;;;10.77;6.70;;;17.20;99.90;;;;;;5033412;28;20489;-51
2022/08/29 10:02:23;;;;;;;11.23;6.10;;;17.30;99.90;;;;;;5033580;28;20491;-52
2022/08/29 10:04:53;;;;;;;10.60;5.30;;;17.30;99.90;;;;;;5035683;28;20528;-53
2022/08/29 10:07:25;;;;;;;11.03;5.70;;;17.40;99.90;;;;;;5042177;28;20485;-52
2022/08/29 10:10:02;;;;;;;11.63;5.80;;;17.40;99.90;;;;;;5033561;28;20576;-53
2022/08/29 10:12:38;;;;;;;7.17;6.00;;;17.40;99.90;;;;;;5037468;28;20540;-55
2022/08/29 10:15:09;;;;;;;8.70;5.43;;;17.40;99.90;;;;;;5037051;28;20500;-52
2022/08/29 10:20:35;;;;;;;10.40;5.80;;;17.50;99.90;;;;;;5032817;28;20564;-53
2022/08/29 10:23:09;;;;;;;10.30;6.77;;;17.60;99.90;;;;;;5042783;28;20446;-52
2022/08/29 10:25:38;;;;;;;13.87;6.30;;;17.60;99.90;;;;;;5041031;28;20553;-54
2022/08/29 10:28:18;;;;;;;12.03;6.37;;;17.60;99.90;;;;;;5027040;28;20470;-53
2022/08/29 10:30:51;;;;;;;15.43;6.10;;;17.60;99.90;;;;;;5024311;28;20598;-53
2022/08/29 10:33:29;;;;;;;14.90;6.10;;;17.60;99.90;;;;;;5027622;28;20507;-54
2022/08/29 10:36:00;;;;;;;13.43;6.03;;;17.80;99.90;;;;;;5024950;28;20466;-54
2022/08/29 10:38:45;;;;;;;10.73;6.50;;;18.00;99.90;;;;;;5042082;28;20434;-52
2022/08/29 10:41:22;;;;;;;9.77;6.10;;;18.30;93.50;;;;;;5034441;28;20970;-52
2022/08/29 10:43:55;;;;;;;9.90;5.67;;;18.50;58.10;;;;;;5033282;28;20884;-54
2022/08/29 10:46:39;;;;;;;14.50;6.40;;;18.70;64.80;;;;;;5029510;28;20516;-52
2022/08/29 10:49:16;;;;;;;13.40;5.67;;;18.90;62.60;;;;;;5044392;28;20488;-52
2022/08/29 10:51:52;;;;;;;12.13;5.50;;;19.00;67.20;;;;;;5030514;28;20460;-51
2022/08/29 10:54:30;;;;;;;10.13;5.90;;;19.10;86.40;;;;;;5038362;28;20527;-51
2022/08/29 10:56:59;;;;;;;13.47;6.60;;;19.10;95.20;;;;;;5050993;22;20519;-49
2022/08/29 10:59:30;;;;;;;12.60;6.13;;;19.00;99.90;;;;;;5049859;28;20974;-50
2022/08/29 11:02:00;;;;;;;10.27;4.97;;;19.00;99.70;;;;;;5043555;28;20485;-50
2022/08/29 11:04:33;;;;;;;10.27;5.80;;;18.90;90.10;;;;;;5051016;28;20860;-50
2022/08/29 11:07:05;;;;;;;10.87;5.13;;;18.90;97.00;;;;;;5056524;28;20466;-50
2022/08/29 11:09:39;;;;;;;7.47;4.90;;;18.80;96.50;;;;;;5043003;28;20459;-51
2022/08/29 11:12:11;;;;;;;12.73;5.80;;;18.80;81.10;;;;;;5030203;28;20488;-49
2022/08/29 11:14:42;;;;;;;12.63;5.60;;;18.80;82.70;;;;;;5034313;28;20482;-50
2022/08/29 11:17:13;;;;;;;10.00;5.67;;;18.70;88.70;;;;;;5045280;28;20986;-50
2022/08/29 11:19:50;;;;;;;8.50;4.97;;;18.70;82.60;;;;;;5034555;28;20450;-50
2022/08/29 11:22:21;;;;;;;9.60;5.73;;;18.70;77.00;;;;;;5044716;28;20445;-50
2022/08/29 11:25:01;;;;;;;6.97;5.37;;;18.80;66.40;;;;;;5051810;28;20446;-50
2022/08/29 11:27:35;;;;;;;8.90;4.90;;;18.80;73.20;;;;;;5039295;28;20632;-50
2022/08/29 11:30:05;;;;;;;10.30;5.30;;;18.80;84.80;;;;;;5039021;28;20538;-50
2022/08/29 11:32:38;;;;;;;9.70;5.00;;;18.80;78.40;;;;;;5042495;28;20453;-50
2022/08/29 11:35:12;;;;;;;10.27;5.00;;;18.80;73.10;;;;;;5034466;28;20455;-50
2022/08/29 11:38:07;;;;;;;10.40;5.20;;;18.90;69.20;;;;;;5049049;28;20880;-51
2022/08/29 11:41:04;;;;;;;10.17;5.27;;;18.90;75.90;;;;;;5041202;28;21028;-50
2022/08/29 11:43:37;;;;;;;11.07;4.67;;;18.90;73.00;;;;;;5036185;28;20438;-50
2022/08/29 11:46:05;;;;;;;13.30;4.83;;;19.00;68.60;;;;;;5032129;28;20459;-50
2022/08/29 11:48:36;;;;;;;11.03;5.20;;;19.00;86.90;;;;;;5042260;28;20477;-49
2022/08/29 11:51:32;;;;;;;8.43;5.13;;;19.00;82.80;;;;;;5043413;28;20455;-54
2022/08/29 11:54:44;;;;;;;9.70;5.13;;;19.00;71.20;;;;;;5037481;28;20478;-54
2022/08/29 11:57:52;;;;;;;13.17;5.03;;;19.00;75.10;;;;;;4989793;28;20505;-54
2022/08/29 12:00:42;;;;;;;5.87;5.03;;;19.00;87.90;;;;;;5014787;28;20458;-54
2022/08/29 12:03:50;;;;;;;11.30;5.37;;;19.10;85.70;;;;;;5028366;28;20458;-54
2022/08/29 12:06:22;;;;;;;12.80;5.03;;;19.20;84.90;;;;;;5031477;28;20462;-53
2022/08/29 12:08:56;;;;;;;7.40;4.37;;;19.20;94.10;;;;;;5023893;28;20486;-53
2022/08/29 12:12:02;;;;;;;10.80;5.73;;;19.30;99.50;;;;;;5024993;28;20458;-53
2022/08/29 12:14:30;;;;;;;9.30;5.53;;;19.30;99.90;;;;;;5028893;28;20980;-54
2022/08/29 12:17:02;;;;;;;9.53;4.80;;;19.30;99.90;;;;;;5035464;28;20469;-54
2022/08/29 12:19:50;;;;;;;7.50;4.47;;;19.30;99.90;;;;;;5029496;28;20526;-54
2022/08/29 12:22:47;;;;;;;8.13;4.37;;;19.40;99.90;;;;;;5027595;28;20529;-53
2022/08/29 12:25:29;;;;;;;13.20;4.60;;;19.40;99.90;;;;;;5032637;28;20466;-54
2022/08/29 12:28:03;;;;;;;5.50;3.73;;;19.50;99.90;;;;;;5030571;28;20486;-53
2022/08/29 12:30:33;;;;;;;4.93;3.27;;;19.50;99.90;;;;;;5030527;28;21024;-53
2022/08/29 12:33:13;;;;;;;6.83;3.30;;;19.50;99.90;;;;;;5030965;28;20482;-54
2022/08/29 12:36:00;;;;;;;4.80;3.60;;;19.50;99.90;;;;;;5031029;28;20505;-54
2022/08/29 12:38:37;;;;;;;5.90;3.70;;;19.60;99.90;;;;;;5029537;28;20562;-54
2022/08/29 12:41:19;;;;;;;4.40;3.50;;;19.60;99.90;;;;;;5024371;28;20952;-53
2022/08/29 12:43:47;;;;;;;5.60;3.50;;;19.60;99.90;;;;;;5022488;28;20442;-53
2022/08/29 12:46:29;;;;;;;5.53;3.90;;;19.60;99.90;;;;;;5032549;28;20463;-53
2022/08/29 12:49:06;;;;;;;6.00;3.57;;;19.60;99.90;;;;;;5030986;28;20466;-53
2022/08/29 12:51:35;;;;;;;11.20;4.83;;;19.60;99.90;;;;;;5023797;28;20473;-53
2022/08/29 12:54:02;;;;;;;6.00;4.10;;;19.60;99.90;;;;;;5023269;28;20479;-54
2022/08/29 12:56:29;;;;;;;4.00;3.60;;;19.60;99.90;;;;;;5032553;28;20497;-53
2022/08/29 12:58:57;;;;;;;7.20;4.17;;;19.70;99.90;;;;;;5038499;28;20482;-53